Universal City, Texas
Current Conditions -  °F | °C
As of 3:58 PM on Thursday 27 Nov 2014 (Local Time) from KRND Reporting Station
Clear Clear  
Wind Chill: 64°   Ceiling: Unl
Heat Index: 64°   Visibility: 10mi
Dew Point: 32°   Wind: 7mph
Humidity: 30%   Direction: 40°NE
Pressure: 30.4"   Gusts: NA
Location:  29.56°N, 98.31°W
Report Text: KRND 272158Z AUTO 04006KT 10SM CLR 18/00 A3040 RMK AO2 SLP293 T01801000
Loading
Personal Weather Stations






























Interactive Weather Map New forecast layout! Learn more

10-Day Weather Forecast

Advertisements
Track Severe Weather on mobile